LFBMLFBZ

Guest
Details From LFBM - MONT DE MARSAN
To LFBZ - Biarritz-Anglet-Bayonne
Flight Number -
Tags decoded
Created
Modified
Stats Distance 51 nm / 95 km
Max Altitude 0 ft / 0 m
Waypoints 2
Social Downloads 3
Likes 0
Share VATSIM

Download

Looking for another format? Having issues loading an existing format? Contact us
Advertisement - Login to hide

Notes

Requested: LFBM LFBZ

Route

LFBM LFBZ

ID Type Via Altitude Latitude Longitude Leg Dist Tot Dist Heading (true) Name
O LFBM APT - 0 ft / 0 m 43.91150˚ -0.50937˚ - 0 nm - MONT DE MARSAN
O LFBZ APT - 0 ft / 0 m 43.46843˚ -1.52332˚ 51 nm 51 nm 239° / 239° Biarritz-Anglet-Bayonne

Altitude Profile

Advertisement - Login to hide

LFBM

Details ICAO LFBM
Name MONT DE MARSAN
Region France
Timezone Europe/Paris (UTC+1.0)
Stats Elevation 203 ft / 62 m (AMSL)
Location 43.911504° -0.509371°
Runways 1
Magnetic Variation 0.044° E

METAR

LFBM 162100Z AUTO 28002KT 2900 1100 R27/1600D BR NSC 00/M00 Q1028 NOSIG

Decode

TAF

TAF TAF LFBM 162000Z 1621/1721 VRB02KT 7000 NSC BECMG 1621/1623 2000 BCFG BECMG 1700/1702 0500 FZFG VV/// BECMG 1706/1708 1500 BCFG BKN002 BECMG 1708/1710 9999 NSW NSC

Decode

Departure Runways

ID Width Length Bearing (true) Bearing (mag) Surface Threshold Offset Overrun Length
09 148 ft / 45 m 11,795 ft / 3,595 m 87.19° 87.15° Asphalt 0 ft / 0 m 1,328 ft / 405 m
27 148 ft / 45 m 11,795 ft / 3,595 m 267.22° 267.18° Asphalt 364 ft / 111 m 0 ft / 0 m

LFBZ

Details ICAO LFBZ (BIQ)
Name Biarritz-Anglet-Bayonne
Region France
Timezone Europe/Paris (UTC+1.0)
Stats Elevation 245 ft / 75 m (AMSL)
Location 43.468427° -1.523322°
Runways 1
Magnetic Variation 0.225° W

METAR

LFBZ 162100Z AUTO VRB02KT 9999 BKN034 BKN040 BKN047 04/04 Q1028 NOSIG

Decode

TAF

TAF AMD LFBZ 161846Z 1618/1718 VRB02KT 9999 SCT015 BKN030 TEMPO 1618/1619 2500 +RA PROB30 TEMPO 1700/1708 4000 -SHRA BKN015TCU PROB30 TEMPO 1705/1708 2000 BR BECMG 1712/1714 32008KT

Decode

Destination Runways

ID Width Length Bearing (true) Bearing (mag) Surface Threshold Offset Overrun Length
09 148 ft / 45 m 7,388 ft / 2,252 m 89.12° 89.34° Asphalt 673 ft / 205 m 0 ft / 0 m
27 148 ft / 45 m 7,388 ft / 2,252 m 269.14° 269.36° Asphalt 0 ft / 0 m 0 ft / 0 m

Approach Navaids

Runway Type Ident Frequency Range Bearing (true) Bearing (mag) Slope Elevation
09 Localiser BZ 111.34 MHz 18 nm / 33 km 89.35° 89.58° - 243 ft / 74 m (AMSL)
09 Glidescope BZ 111.34 MHz 10 nm / 19 km 89.13° 89.36° 3.00° 243 ft / 74 m (AMSL)
27 Localiser BZ 111.35 MHz 18 nm / 33 km 269.04° 269.27° - 234 ft / 71 m (AMSL)
27 Glidescope BZ 111.35 MHz 10 nm / 19 km 269.13° 269.36° 3.00° 234 ft / 71 m (AMSL)
27 DME BZ 111.35 MHz 18 nm / 33 km - - - 223 ft / 68 m (AMSL)

Popular Alternatives